Time;durP1;ratioP1;P1;durP2;ratioP2;P2;SDS_P1;SDS_P2;PMS_P1;PMS_P2;Temp;Humidity;BMP_temperature;BMP_pressure;BME280_temperature;BME280_humidity;BME280_pressure;Samples;Min_cycle;Max_cycle;Signal;HPM_P1;HPM_P2
2021/04/13 00:02:39;;;;;;;1999.90;999.90;;;3.00;99.90;;;;;;5087417;28;20044;-89
2021/04/13 00:05:09;;;;;;;1999.90;999.90;;;3.00;99.90;;;;;;5087651;28;20044;-90
2021/04/13 00:07:39;;;;;;;1999.90;999.90;;;3.00;99.90;;;;;;5079580;28;20680;-90
2021/04/13 00:10:12;;;;;;;1999.90;999.90;;;3.00;99.90;;;;;;5092985;28;20097;-90
2021/04/13 00:12:39;;;;;;;1999.90;999.90;;;3.00;99.90;;;;;;5092515;28;20055;-90
2021/04/13 00:15:10;;;;;;;1999.90;999.90;;;3.00;99.90;;;;;;5093268;28;20071;-90
2021/04/13 00:17:41;;;;;;;1999.90;999.90;;;2.90;99.90;;;;;;5093162;28;20079;-90
2021/04/13 00:20:14;;;;;;;1999.90;999.90;;;2.90;99.90;;;;;;5092912;28;20093;-95
2021/04/13 00:22:42;;;;;;;1999.90;999.90;;;2.90;99.90;;;;;;5094795;28;20509;-96
2021/04/13 00:25:20;;;;;;;1999.90;999.90;;;2.90;99.90;;;;;;5094399;28;20048;-96
2021/04/13 00:27:48;;;;;;;1999.90;999.90;;;2.90;99.90;;;;;;5095017;28;20468;-95
2021/04/13 00:30:19;;;;;;;1999.90;999.90;;;3.00;99.90;;;;;;5095940;28;20052;-95
2021/04/13 00:32:50;;;;;;;1999.90;999.90;;;3.00;99.90;;;;;;5097391;28;20068;-95
2021/04/13 00:35:29;;;;;;;1999.90;999.90;;;3.00;99.90;;;;;;5099127;28;20048;-95
2021/04/13 00:38:17;;;;;;;1999.90;999.90;;;3.00;99.90;;;;;;5099144;28;20402;-96
2021/04/13 00:40:47;;;;;;;1999.90;999.90;;;3.10;99.90;;;;;;5103579;28;20052;-95
2021/04/13 00:43:18;;;;;;;1999.90;999.90;;;3.10;99.90;;;;;;5112471;28;20066;-96
2021/04/13 00:45:47;;;;;;;1999.90;999.90;;;3.10;99.90;;;;;;5106067;28;20383;-94
2021/04/13 00:48:22;;;;;;;1999.90;999.90;;;3.10;99.90;;;;;;5099300;28;20449;-96
2021/04/13 00:50:52;;;;;;;1999.90;999.90;;;3.10;99.90;;;;;;5098130;28;20071;-96
2021/04/13 00:53:23;;;;;;;1999.90;999.90;;;3.10;99.90;;;;;;5098023;28;20082;-96
2021/04/13 00:55:54;;;;;;;1999.90;999.90;;;3.10;99.90;;;;;;5098363;28;20425;-95
2021/04/13 00:58:27;;;;;;;1999.90;999.90;;;3.20;99.90;;;;;;5097641;28;20556;-96
2021/04/13 01:00:56;;;;;;;1999.90;999.90;;;3.10;99.90;;;;;;5096808;28;20105;-91
2021/04/13 01:03:26;;;;;;;1999.90;999.90;;;3.20;99.90;;;;;;5097433;28;20052;-95
2021/04/13 01:05:57;;;;;;;1999.90;999.90;;;3.20;99.90;;;;;;5097644;28;20068;-95
2021/04/13 01:08:32;;;;;;;1999.90;999.90;;;3.20;99.90;;;;;;5097727;28;20446;-95
2021/04/13 01:11:04;;;;;;;1999.90;999.90;;;3.20;99.90;;;;;;5097571;28;20048;-95
2021/04/13 01:13:41;;;;;;;1999.90;999.90;;;3.20;99.90;;;;;;5098368;28;20079;-96
2021/04/13 01:16:09;;;;;;;1999.90;999.90;;;3.20;99.90;;;;;;5097652;28;20075;-95
2021/04/13 01:18:41;;;;;;;1999.90;999.90;;;3.20;99.90;;;;;;5098314;28;20048;-96
2021/04/13 01:21:28;;;;;;;1999.90;999.90;;;3.20;99.90;;;;;;5105279;28;20055;-96
2021/04/13 01:24:07;;;;;;;1999.90;999.90;;;3.20;99.90;;;;;;5103876;28;20055;-96
2021/04/13 01:26:37;;;;;;;1999.90;999.90;;;3.20;99.90;;;;;;5098444;28;20098;-95
2021/04/13 01:29:05;;;;;;;1999.90;999.90;;;3.20;99.90;;;;;;5097945;28;20460;-95
2021/04/13 01:31:44;;;;;;;1999.90;999.90;;;3.20;99.90;;;;;;5101664;28;20059;-96
2021/04/13 01:34:23;;;;;;;1999.90;999.90;;;3.10;99.90;;;;;;5110740;28;20032;-95
2021/04/13 01:37:04;;;;;;;1999.90;999.90;;;3.20;99.90;;;;;;5103182;28;20138;-95
2021/04/13 01:39:40;;;;;;;1999.90;999.90;;;3.10;99.90;;;;;;5098097;28;20135;-95
2021/04/13 01:42:09;;;;;;;1999.90;999.90;;;3.10;99.90;;;;;;5098830;28;20109;-96
2021/04/13 01:44:39;;;;;;;1999.90;999.90;;;3.10;99.90;;;;;;5097295;28;20040;-96
2021/04/13 01:47:08;;;;;;;1999.90;999.90;;;3.20;99.90;;;;;;5097018;28;20048;-96
2021/04/13 01:49:43;;;;;;;1999.90;999.90;;;3.10;99.90;;;;;;5096847;28;20402;-95
2021/04/13 01:52:14;;;;;;;1999.90;999.90;;;3.10;99.90;;;;;;5097393;28;20048;-96
2021/04/13 01:54:41;;;;;;;1999.90;999.90;;;3.10;99.90;;;;;;5096790;28;20444;-95
2021/04/13 01:57:15;;;;;;;1999.90;999.90;;;3.10;99.90;;;;;;5097078;28;20043;-95
2021/04/13 01:59:49;;;;;;;1999.90;999.90;;;3.10;99.90;;;;;;5097152;28;20130;-96
2021/04/13 02:02:21;;;;;;;1999.90;999.90;;;3.10;99.90;;;;;;5096514;28;20052;-95
2021/04/13 02:05:01;;;;;;;1999.90;999.90;;;3.10;99.90;;;;;;5096910;28;20059;-95
2021/04/13 02:07:41;;;;;;;1999.90;999.90;;;3.00;99.90;;;;;;5097017;28;20052;-95
2021/04/13 02:10:22;;;;;;;1999.90;999.90;;;3.00;99.90;;;;;;5096697;28;20071;-96
2021/04/13 02:12:52;;;;;;;1999.90;999.90;;;3.00;99.90;;;;;;5096291;28;20139;-96
2021/04/13 02:15:27;;;;;;;1999.90;999.90;;;3.00;99.90;;;;;;5096685;28;20053;-96
2021/04/13 02:17:58;;;;;;;1999.90;999.90;;;3.00;99.90;;;;;;5096712;28;20063;-95
2021/04/13 02:20:30;;;;;;;1999.90;999.90;;;3.00;99.90;;;;;;5097500;28;20063;-96
2021/04/13 02:22:59;;;;;;;1999.90;999.90;;;3.00;99.90;;;;;;5096764;28;20052;-96
2021/04/13 02:25:30;;;;;;;1999.90;999.90;;;3.00;99.90;;;;;;5096745;28;20078;-96
2021/04/13 02:28:01;;;;;;;1999.90;999.90;;;3.00;99.90;;;;;;5098010;28;20498;-96
2021/04/13 02:30:37;;;;;;;1999.90;999.90;;;3.00;99.90;;;;;;5098520;28;20550;-96
2021/04/13 02:33:11;;;;;;;1999.90;999.90;;;3.00;99.90;;;;;;5097990;28;20058;-96
2021/04/13 02:35:39;;;;;;;1999.90;999.90;;;3.00;99.90;;;;;;5100518;28;20048;-96
2021/04/13 02:38:12;;;;;;;1999.90;999.90;;;3.00;99.90;;;;;;5101398;28;20048;-95
2021/04/13 02:40:48;;;;;;;1999.90;999.90;;;3.00;99.90;;;;;;5101922;28;20064;-95
2021/04/13 02:43:28;;;;;;;1999.90;999.90;;;3.00;99.90;;;;;;5100010;28;20052;-96
2021/04/13 02:45:58;;;;;;;1999.90;999.90;;;3.10;99.90;;;;;;5103636;28;20044;-95
2021/04/13 02:48:29;;;;;;;1999.90;999.90;;;3.10;99.90;;;;;;5097967;28;20079;-95
2021/04/13 02:51:00;;;;;;;1999.90;999.90;;;3.10;99.90;;;;;;5098516;28;20051;-96
2021/04/13 02:53:35;;;;;;;1999.90;999.90;;;3.00;99.90;;;;;;5097598;28;20207;-96
2021/04/13 02:56:04;;;;;;;;;;;3.10;99.90;;;;;;5096601;28;20139;-96
2021/04/13 02:58:42;;;;;;;1999.90;999.90;;;3.10;99.90;;;;;;5096362;28;19920;-95
2021/04/13 03:01:11;;;;;;;1999.90;999.90;;;3.10;99.90;;;;;;5097514;28;20081;-96
2021/04/13 03:03:42;;;;;;;1999.90;999.90;;;3.10;99.90;;;;;;5097410;28;20060;-96
2021/04/13 03:06:11;;;;;;;1999.90;999.90;;;3.10;99.90;;;;;;5097066;28;20592;-95
2021/04/13 03:08:39;;;;;;;1999.90;999.90;;;3.10;99.90;;;;;;5097626;28;20081;-95
2021/04/13 03:11:12;;;;;;;1999.90;999.90;;;3.10;99.90;;;;;;5097395;28;20055;-96
2021/04/13 03:13:43;;;;;;;1999.90;999.90;;;3.00;99.90;;;;;;5099768;28;20052;-95
2021/04/13 03:16:13;;;;;;;1999.90;999.90;;;3.00;99.90;;;;;;5097748;28;20052;-95
2021/04/13 03:18:42;;;;;;;1999.90;999.90;;;3.00;99.90;;;;;;5094950;28;20051;-95
2021/04/13 03:21:15;;;;;;;1999.90;999.90;;;3.00;99.90;;;;;;5095317;28;20079;-96
2021/04/13 03:23:44;;;;;;;1999.90;999.90;;;2.90;99.90;;;;;;5094584;28;20051;-95
2021/04/13 03:26:16;;;;;;;1999.90;999.90;;;2.90;99.90;;;;;;5095227;28;20098;-96
2021/04/13 03:28:47;;;;;;;1999.90;999.90;;;2.80;99.90;;;;;;5095192;28;20551;-95
2021/04/13 03:31:18;;;;;;;1999.90;999.90;;;2.80;99.90;;;;;;5095382;28;20105;-95
2021/04/13 03:33:47;;;;;;;1999.90;999.90;;;2.80;99.90;;;;;;5096213;28;20052;-95
2021/04/13 03:36:18;;;;;;;1999.90;999.90;;;2.80;99.90;;;;;;5095610;28;20159;-96
2021/04/13 03:38:47;;;;;;;1999.90;999.90;;;2.70;99.90;;;;;;5094969;28;20051;-96
2021/04/13 03:41:18;;;;;;;1999.90;999.90;;;2.70;99.90;;;;;;5095998;28;20122;-95
2021/04/13 03:43:48;;;;;;;1999.90;999.90;;;2.70;99.90;;;;;;5095094;28;20048;-96
2021/04/13 03:46:16;;;;;;;1999.90;999.90;;;2.60;99.90;;;;;;5095964;28;20101;-95
2021/04/13 03:48:49;;;;;;;1999.90;999.90;;;2.60;99.90;;;;;;5095631;28;20055;-95
2021/04/13 03:51:32;;;;;;;1999.90;999.90;;;2.60;99.90;;;;;;5095887;28;20417;-95
2021/04/13 03:54:00;;;;;;;1999.90;999.90;;;2.50;99.90;;;;;;5096608;28;20172;-95
2021/04/13 03:56:27;;;;;;;1999.90;999.90;;;2.50;99.90;;;;;;5098348;28;20449;-96
2021/04/13 03:58:58;;;;;;;1999.90;999.90;;;2.50;99.90;;;;;;5096769;28;20075;-96
2021/04/13 04:01:29;;;;;;;1999.90;999.90;;;2.40;99.90;;;;;;5095793;28;20052;-95
2021/04/13 04:03:59;;;;;;;1999.90;999.90;;;2.40;99.90;;;;;;5095999;28;20105;-95
2021/04/13 04:06:47;;;;;;;1999.90;999.90;;;2.40;99.90;;;;;;5095695;28;20044;-95
2021/04/13 04:09:17;;;;;;;1999.90;999.90;;;2.30;99.90;;;;;;5100119;28;20052;-95
2021/04/13 04:11:45;;;;;;;1999.90;999.90;;;2.30;99.90;;;;;;5099454;28;20486;-94
2021/04/13 04:14:17;;;;;;;1999.90;999.90;;;2.20;99.90;;;;;;5098732;28;20044;-95
2021/04/13 04:16:45;;;;;;;1999.90;999.90;;;2.20;99.90;;;;;;5098652;28;20551;-95
2021/04/13 04:19:16;;;;;;;1999.90;999.90;;;2.20;99.90;;;;;;5099162;28;20451;-94
2021/04/13 04:21:46;;;;;;;1999.90;999.90;;;2.20;99.90;;;;;;5098761;28;20094;-95
2021/04/13 04:24:22;;;;;;;1999.90;999.90;;;2.10;99.90;;;;;;5097707;28;20056;-90
2021/04/13 04:26:55;;;;;;;1999.90;999.90;;;2.10;99.90;;;;;;5113563;28;20043;-90
2021/04/13 04:29:35;;;;;;;1999.90;999.90;;;2.10;99.90;;;;;;5095629;28;20420;-90
2021/04/13 04:32:15;;;;;;;1999.90;999.90;;;2.10;99.90;;;;;;5097131;28;20386;-90
2021/04/13 04:34:54;;;;;;;1999.90;999.90;;;2.00;99.90;;;;;;5097098;28;20067;-91
2021/04/13 04:37:29;;;;;;;1999.90;999.90;;;2.00;99.90;;;;;;5101377;28;20131;-90
2021/04/13 04:40:35;;;;;;;1999.90;999.90;;;2.00;99.90;;;;;;5097056;28;20044;-91
2021/04/13 04:43:04;;;;;;;;;;;1.90;99.90;;;;;;5100129;28;20161;-90
2021/04/13 04:45:48;;;;;;;1999.90;999.90;;;1.90;99.90;;;;;;5097301;28;19920;-91
2021/04/13 04:48:37;;;;;;;1999.90;999.90;;;1.90;99.90;;;;;;5086879;28;20097;-90
2021/04/13 04:51:07;;;;;;;1999.90;999.90;;;1.80;99.90;;;;;;5100998;28;20044;-91
2021/04/13 04:53:36;;;;;;;1999.90;999.90;;;1.80;99.90;;;;;;5097587;28;20482;-90
2021/04/13 04:56:06;;;;;;;1999.90;999.90;;;1.80;99.90;;;;;;5097952;28;20048;-91
2021/04/13 04:58:33;;;;;;;1999.90;999.90;;;1.80;99.90;;;;;;5096614;28;20044;-91
2021/04/13 05:01:01;;;;;;;1999.90;999.90;;;1.80;99.90;;;;;;5097604;28;20044;-91
2021/04/13 05:03:29;;;;;;;1999.90;999.90;;;1.80;99.90;;;;;;5096614;28;20080;-91
2021/04/13 05:05:57;;;;;;;1999.90;999.90;;;1.70;99.90;;;;;;5097000;28;20044;-91
2021/04/13 05:08:25;;;;;;;1999.90;999.90;;;1.70;99.90;;;;;;5097059;28;20048;-91
2021/04/13 05:10:53;;;;;;;1999.90;999.90;;;1.70;99.90;;;;;;5096947;28;20114;-91
2021/04/13 05:13:21;;;;;;;1999.90;999.90;;;1.70;99.90;;;;;;5100496;28;20056;-91
2021/04/13 05:15:49;;;;;;;1999.90;999.90;;;1.60;99.90;;;;;;5100106;28;20574;-91
2021/04/13 05:18:19;;;;;;;1999.90;999.90;;;1.70;99.90;;;;;;5098082;28;20101;-90
2021/04/13 05:20:46;;;;;;;1999.90;999.90;;;1.70;99.90;;;;;;5086175;28;20135;-91
2021/04/13 05:23:14;;;;;;;1999.90;999.90;;;1.70;99.90;;;;;;5096261;28;20090;-90
2021/04/13 05:25:41;;;;;;;1999.90;999.90;;;1.60;99.90;;;;;;5107020;28;20047;-91
2021/04/13 05:28:10;;;;;;;1999.90;999.90;;;1.70;99.90;;;;;;5111445;28;20075;-90
2021/04/13 05:30:39;;;;;;;1999.90;999.90;;;1.60;99.90;;;;;;5096997;28;20081;-90
2021/04/13 05:33:07;;;;;;;1999.90;999.90;;;1.60;99.90;;;;;;5096795;28;20066;-90
2021/04/13 05:35:35;;;;;;;1999.90;999.90;;;1.70;99.90;;;;;;5110012;28;20130;-91
2021/04/13 05:38:05;;;;;;;1999.90;999.90;;;1.70;99.90;;;;;;5095640;28;20055;-90
2021/04/13 05:40:35;;;;;;;1999.90;999.90;;;1.70;99.90;;;;;;5098823;28;20051;-90
2021/04/13 05:43:03;;;;;;;1999.90;999.90;;;1.60;99.90;;;;;;5099434;28;20044;-91
2021/04/13 05:45:36;;;;;;;1999.90;999.90;;;1.70;99.90;;;;;;5098382;28;20044;-90
2021/04/13 05:48:04;;;;;;;1999.90;999.90;;;1.70;99.90;;;;;;5093486;28;20114;-90
2021/04/13 05:50:34;;;;;;;1999.90;999.90;;;1.70;99.90;;;;;;5085391;28;20067;-90
2021/04/13 05:53:02;;;;;;;1999.90;999.90;;;1.70;99.90;;;;;;5095367;28;20052;-91
2021/04/13 05:55:30;;;;;;;1999.90;999.90;;;1.70;99.90;;;;;;5096395;28;20101;-90
2021/04/13 05:58:01;;;;;;;1999.90;999.90;;;1.80;99.90;;;;;;5098547;28;20113;-90
2021/04/13 06:00:29;;;;;;;1999.90;999.90;;;1.70;99.90;;;;;;5097374;28;21410;-90
2021/04/13 06:02:59;;;;;;;1999.90;999.90;;;1.80;99.90;;;;;;5095243;28;20044;-91
2021/04/13 06:05:28;;;;;;;1999.90;999.90;;;1.80;99.90;;;;;;5097055;28;20127;-90
2021/04/13 06:07:56;;;;;;;1999.90;999.90;;;1.90;99.90;;;;;;5098048;28;20052;-90
2021/04/13 06:10:26;;;;;;;1999.90;999.90;;;1.90;99.90;;;;;;5096535;28;20136;-91
2021/04/13 06:12:57;;;;;;;1999.90;999.90;;;2.00;99.90;;;;;;5097970;28;20058;-90
2021/04/13 06:15:30;;;;;;;1999.90;999.90;;;2.10;99.90;;;;;;5098154;28;20138;-90
2021/04/13 06:17:58;;;;;;;1999.90;999.90;;;2.20;99.90;;;;;;5092425;28;20504;-91
2021/04/13 06:20:30;;;;;;;1999.90;999.90;;;2.30;99.90;;;;;;5095031;28;20051;-90
2021/04/13 06:22:59;;;;;;;1999.90;999.90;;;2.50;99.90;;;;;;5095954;28;20076;-95
2021/04/13 06:25:29;;;;;;;1999.90;999.90;;;2.60;99.90;;;;;;5097649;28;20044;-96
2021/04/13 06:27:57;;;;;;;1999.90;999.90;;;2.70;99.90;;;;;;5096592;28;20048;-95
2021/04/13 06:30:26;;;;;;;1999.90;999.90;;;2.90;99.90;;;;;;5100787;28;20048;-96
2021/04/13 06:32:59;;;;;;;1999.90;999.90;;;3.00;99.90;;;;;;5103807;28;20055;-95
2021/04/13 06:35:28;;;;;;;1999.90;999.90;;;3.20;99.90;;;;;;5100189;28;20086;-95
2021/04/13 06:38:00;;;;;;;1999.90;999.90;;;3.30;99.90;;;;;;5096496;28;20054;-96
2021/04/13 06:40:47;;;;;;;1999.90;999.90;;;3.50;99.90;;;;;;5097373;28;20375;-95
2021/04/13 06:43:29;;;;;;;1999.90;999.90;;;3.60;99.90;;;;;;5097984;28;20490;-96
2021/04/13 06:46:07;;;;;;;1999.90;999.90;;;3.70;99.90;;;;;;5101944;28;20066;-95
2021/04/13 06:48:59;;;;;;;1999.90;999.90;;;3.90;99.90;;;;;;5110620;28;20060;-96
2021/04/13 06:51:37;;;;;;;1999.90;999.90;;;3.90;99.90;;;;;;5097320;28;20470;-96
2021/04/13 06:54:11;;;;;;;1999.90;999.90;;;4.00;99.90;;;;;;5097027;28;20052;-96
2021/04/13 06:57:06;;;;;;;1999.90;999.90;;;4.20;99.90;;;;;;5096734;28;20056;-96
2021/04/13 06:59:43;;;;;;;1999.90;999.90;;;4.30;99.90;;;;;;5096541;28;20056;-95
2021/04/13 07:02:15;;;;;;;1999.90;999.90;;;4.40;99.90;;;;;;5095730;28;20052;-96
2021/04/13 07:04:51;;;;;;;1999.90;999.90;;;4.60;99.90;;;;;;5095601;28;20051;-95
2021/04/13 07:07:24;;;;;;;1999.90;999.90;;;4.60;99.90;;;;;;5095310;28;20056;-95
2021/04/13 07:10:02;;;;;;;1999.90;999.90;;;4.80;99.90;;;;;;5097363;28;20078;-95
2021/04/13 07:12:35;;;;;;;1999.90;999.90;;;4.90;99.90;;;;;;5107251;28;20052;-95
2021/04/13 07:15:08;;;;;;;1999.90;999.90;;;5.00;99.90;;;;;;5116447;28;20063;-96
2021/04/13 07:17:41;;;;;;;1999.90;999.90;;;5.00;99.90;;;;;;5098282;28;20071;-95
2021/04/13 07:20:13;;;;;;;1999.90;999.90;;;5.10;99.90;;;;;;5096172;28;20111;-96
2021/04/13 07:22:45;;;;;;;1999.90;999.90;;;5.10;99.90;;;;;;5095351;28;20489;-96
2021/04/13 07:25:15;;;;;;;1999.90;999.90;;;5.30;99.90;;;;;;5095348;28;20047;-95
2021/04/13 07:27:46;;;;;;;1999.90;999.90;;;5.30;99.90;;;;;;5095215;28;20083;-96
2021/04/13 07:30:22;;;;;;;1999.90;999.90;;;5.40;99.90;;;;;;5096037;28;20056;-96
2021/04/13 07:32:52;;;;;;;1999.90;999.90;;;5.40;99.90;;;;;;5095484;28;20109;-96
2021/04/13 07:35:22;;;;;;;1999.90;999.90;;;5.50;99.90;;;;;;5096165;28;20055;-96
2021/04/13 07:37:52;;;;;;;1999.90;999.90;;;5.50;99.90;;;;;;5095290;28;20135;-96
2021/04/13 07:40:26;;;;;;;1999.90;999.90;;;5.60;99.90;;;;;;5096224;28;20518;-96
2021/04/13 07:42:58;;;;;;;1999.90;999.90;;;5.70;99.90;;;;;;5094935;28;20052;-96
2021/04/13 07:45:32;;;;;;;1999.90;999.90;;;5.70;99.90;;;;;;5095820;28;20101;-95
2021/04/13 07:48:43;;;;;;;1999.90;999.90;;;5.80;99.90;;;;;;5098363;28;20040;-90
2021/04/13 07:51:19;;;;;;;1999.90;999.90;;;5.80;99.90;;;;;;5071374;28;20056;-91
2021/04/13 07:54:05;;;;;;;1999.90;999.90;;;5.80;99.90;;;;;;5095519;28;20148;-96
2021/04/13 07:56:42;;;;;;;1999.90;999.90;;;5.90;99.90;;;;;;5095589;28;20052;-96
2021/04/13 07:59:19;;;;;;;1999.90;999.90;;;5.90;99.90;;;;;;5093517;28;20121;-90
2021/04/13 08:01:49;;;;;;;1999.90;999.90;;;5.90;99.90;;;;;;5087266;28;20478;-90
2021/04/13 08:04:23;;;;;;;1999.90;999.90;;;6.00;99.90;;;;;;5089774;28;20123;-90
2021/04/13 08:07:01;;;;;;;1999.90;999.90;;;6.10;99.90;;;;;;5085239;28;20051;-90
2021/04/13 08:09:40;;;;;;;1999.90;999.90;;;6.10;99.90;;;;;;5093880;28;20106;-90
2021/04/13 08:12:16;;;;;;;1999.90;999.90;;;6.10;99.90;;;;;;5104621;28;20067;-90
2021/04/13 08:14:46;;;;;;;1999.90;999.90;;;6.10;99.90;;;;;;5104942;28;20379;-90
2021/04/13 08:17:18;;;;;;;1999.90;999.90;;;6.10;99.90;;;;;;5094237;28;20044;-95
2021/04/13 08:20:00;;;;;;;1999.90;999.90;;;6.20;99.90;;;;;;5095086;28;20052;-96
2021/04/13 08:22:46;;;;;;;1999.90;999.90;;;6.20;99.90;;;;;;5094792;28;20068;-94
2021/04/13 08:25:35;;;;;;;1999.90;999.90;;;6.30;99.90;;;;;;5097787;28;20052;-95
2021/04/13 08:28:09;;;;;;;1999.90;999.90;;;6.30;99.90;;;;;;5094837;28;20539;-90
2021/04/13 08:30:48;;;;;;;1999.90;999.90;;;6.30;99.90;;;;;;5092230;28;20052;-90
2021/04/13 08:33:29;;;;;;;1999.90;999.90;;;6.40;99.90;;;;;;5094523;28;20048;-89
2021/04/13 08:36:13;;;;;;;1999.90;999.90;;;6.40;99.90;;;;;;5100048;28;20135;-90
2021/04/13 08:38:55;;;;;;;1999.90;999.90;;;6.40;99.90;;;;;;5091637;28;20055;-90
2021/04/13 08:41:36;;;;;;;1999.90;999.90;;;6.40;99.90;;;;;;5093136;28;20055;-90
2021/04/13 08:44:17;;;;;;;1999.90;999.90;;;6.50;99.90;;;;;;5089844;28;20055;-90
2021/04/13 08:46:50;;;;;;;1999.90;999.90;;;6.60;99.90;;;;;;5092799;28;20047;-90
2021/04/13 08:49:37;;;;;;;1999.90;999.90;;;6.60;99.90;;;;;;5093559;28;20063;-90
2021/04/13 08:52:19;;;;;;;1999.90;999.90;;;6.80;99.90;;;;;;5091665;28;20044;-90
2021/04/13 08:54:49;;;;;;;1999.90;999.90;;;6.70;99.90;;;;;;5088259;28;20055;-90
2021/04/13 08:57:35;;;;;;;1999.90;999.90;;;6.70;99.90;;;;;;5096892;28;20048;-89
2021/04/13 09:00:24;;;;;;;1999.90;999.90;;;6.90;99.90;;;;;;5097068;28;20102;-89
2021/04/13 09:03:02;;;;;;;1999.90;999.90;;;6.90;99.90;;;;;;5085556;28;20060;-91
2021/04/13 09:05:32;;;;;;;1999.90;999.90;;;6.90;99.90;;;;;;5096788;28;20110;-90
2021/04/13 09:08:03;;;;;;;1999.90;999.90;;;6.90;99.90;;;;;;5096939;28;20052;-91
2021/04/13 09:10:41;;;;;;;1999.90;999.90;;;7.00;99.90;;;;;;5096252;28;20509;-90
2021/04/13 09:13:26;;;;;;;1999.90;999.90;;;6.90;99.90;;;;;;5087177;28;20051;-90
2021/04/13 09:15:59;;;;;;;1999.90;999.90;;;6.90;99.90;;;;;;5108797;28;20071;-90
2021/04/13 09:18:30;;;;;;;1999.90;999.90;;;7.00;99.90;;;;;;5096235;28;20139;-90
2021/04/13 09:21:04;;;;;;;1999.90;999.90;;;7.10;99.90;;;;;;5097124;28;20090;-90
2021/04/13 09:23:53;;;;;;;1999.90;999.90;;;7.10;99.50;;;;;;5105254;28;20056;-91
2021/04/13 09:26:25;;;;;;;1999.90;999.90;;;7.20;99.00;;;;;;5110591;28;20148;-90
2021/04/13 09:28:57;;;;;;;1999.90;999.90;;;7.20;99.30;;;;;;5106919;28;20079;-91
2021/04/13 09:31:28;;;;;;;1999.90;999.90;;;7.30;98.60;;;;;;5111010;28;20562;-90
2021/04/13 09:34:11;;;;;;;1999.90;999.90;;;7.30;98.70;;;;;;5102188;28;20055;-91
2021/04/13 09:36:55;;;;;;;1999.90;999.90;;;7.40;99.10;;;;;;5095683;28;20044;-90
2021/04/13 09:39:43;;;;;;;1999.90;999.90;;;7.60;99.20;;;;;;5096291;28;20720;-90
2021/04/13 09:42:51;;;;;;;1999.90;999.90;;;7.60;98.40;;;;;;5097424;28;20048;-91
2021/04/13 09:45:25;;;;;;;1999.90;999.90;;;7.60;97.20;;;;;;5061453;28;20060;-91
2021/04/13 09:48:38;;;;;;;1999.90;999.90;;;7.60;97.20;;;;;;5093642;28;20048;-91
2021/04/13 09:51:16;;;;;;;1999.90;999.90;;;7.70;97.20;;;;;;5076641;28;20302;-91
2021/04/13 09:54:42;;;;;;;1999.90;999.90;;;7.70;96.30;;;;;;5103444;28;20066;-91
2021/04/13 09:57:59;;;;;;;1999.90;999.90;;;7.80;96.00;;;;;;5056549;28;20053;-91
2021/04/13 10:00:54;;;;;;;1999.90;999.90;;;8.00;96.10;;;;;;5068605;28;20068;-91
2021/04/13 10:03:59;;;;;;;1999.90;999.90;;;8.00;95.50;;;;;;5089777;28;20044;-90
2021/04/13 10:06:58;;;;;;;;;;;8.10;95.70;;;;;;5087410;28;20044;-88
2021/04/13 10:09:31;;;;;;;1999.90;999.90;;;8.10;95.30;;;;;;5095684;28;20320;-91
2021/04/13 10:12:47;;;;;;;1999.90;999.90;;;8.00;94.80;;;;;;5096085;28;20121;-91
2021/04/13 10:16:03;;;;;;;1999.90;999.90;;;8.20;93.90;;;;;;5087010;28;20044;-90
2021/04/13 10:19:00;;;;;;;1999.90;999.90;;;8.30;94.50;;;;;;5071702;28;20087;-90
2021/04/13 10:22:01;;;;;;;1999.90;999.90;;;8.30;93.70;;;;;;5108751;28;20107;-91
2021/04/13 10:24:43;;;;;;;1999.90;999.90;;;8.50;93.30;;;;;;5100044;28;20082;-90
2021/04/13 10:27:43;;;;;;;1999.90;999.90;;;8.50;92.60;;;;;;5096181;28;20474;-91
2021/04/13 10:30:53;;;;;;;1999.90;999.90;;;8.50;93.50;;;;;;5095154;28;20103;-91
2021/04/13 10:33:51;;;;;;;1999.90;999.90;;;8.80;92.30;;;;;;5067361;28;20240;-91
2021/04/13 10:36:44;;;;;;;1999.90;999.90;;;8.90;93.40;;;;;;5095563;28;20159;-91
2021/04/13 10:39:39;;;;;;;1999.90;999.90;;;9.10;92.70;;;;;;5099021;28;20478;-90
2021/04/13 10:42:34;;;;;;;1999.90;999.90;;;9.20;90.40;;;;;;5083310;28;20547;-91
2021/04/13 10:45:31;;;;;;;1999.90;999.90;;;9.30;91.30;;;;;;5089863;28;20097;-90
2021/04/13 10:48:47;;;;;;;1999.90;999.90;;;9.40;91.50;;;;;;5094669;28;20043;-91
2021/04/13 10:51:53;;;;;;;1999.90;999.90;;;9.60;90.80;;;;;;5091592;28;20089;-90
2021/04/13 10:54:42;;;;;;;1999.90;999.90;;;9.50;90.00;;;;;;5095177;28;20079;-91
2021/04/13 10:57:50;;;;;;;1999.90;999.90;;;9.60;90.00;;;;;;5094690;28;20067;-91
2021/04/13 11:00:36;;;;;;;1999.90;999.90;;;9.50;90.00;;;;;;5095002;28;20048;-91
2021/04/13 11:03:43;;;;;;;1999.90;999.90;;;9.60;89.40;;;;;;5094886;28;20059;-91
2021/04/13 11:06:35;;;;;;;1999.90;999.90;;;9.80;89.40;;;;;;5072055;28;20413;-91
2021/04/13 11:09:38;;;;;;;1999.90;999.90;;;9.70;86.30;;;;;;5088945;28;20059;-91
2021/04/13 11:12:57;;;;;;;1999.90;999.90;;;9.80;89.00;;;;;;5094637;28;20444;-90
2021/04/13 11:15:44;;;;;;;1999.90;999.90;;;10.00;85.60;;;;;;5060389;28;20147;-91
2021/04/13 11:18:41;;;;;;;1999.90;999.90;;;10.10;87.70;;;;;;5090861;28;20039;-91
2021/04/13 11:21:36;;;;;;;1999.90;999.90;;;10.30;87.20;;;;;;5094859;28;20052;-90
2021/04/13 11:24:35;;;;;;;1999.90;999.90;;;10.30;85.80;;;;;;5093491;28;20110;-91
2021/04/13 11:27:31;;;;;;;1999.90;999.90;;;10.30;84.80;;;;;;5084596;28;20131;-91
2021/04/13 11:30:37;;;;;;;1999.90;999.90;;;10.30;85.60;;;;;;5087868;28;20059;-91
2021/04/13 11:33:17;;;;;;;;;;;10.30;86.10;;;;;;5081792;28;20064;-91
2021/04/13 11:35:46;;;;;;;1999.90;999.90;;;10.50;86.10;;;;;;5096022;28;19920;-91
2021/04/13 11:38:35;;;;;;;1999.90;999.90;;;10.60;84.50;;;;;;5088253;28;20434;-91
2021/04/13 11:41:20;;;;;;;1999.90;999.90;;;10.60;84.20;;;;;;5097884;28;20105;-91
2021/04/13 11:43:51;;;;;;;1999.90;999.90;;;10.50;87.20;;;;;;5112750;28;20075;-91
2021/04/13 11:46:26;;;;;;;1999.90;999.90;;;10.40;88.60;;;;;;5110624;28;20056;-91
2021/04/13 11:49:09;;;;;;;1999.90;999.90;;;10.40;87.70;;;;;;5112697;28;20054;-91
2021/04/13 11:51:41;;;;;;;1999.90;999.90;;;10.40;89.30;;;;;;5100233;28;20048;-91
2021/04/13 11:54:44;;;;;;;1999.90;999.90;;;10.50;87.70;;;;;;5080545;28;20044;-90
2021/04/13 11:57:22;;;;;;;1999.90;999.90;;;10.40;89.30;;;;;;5108377;28;20040;-90
2021/04/13 12:00:28;;;;;;;1999.90;999.90;;;10.40;90.40;;;;;;5082560;28;20049;-91
2021/04/13 12:03:08;;;;;;;1999.90;999.90;;;10.30;90.20;;;;;;5092189;28;20059;-91
2021/04/13 12:05:45;;;;;;;1999.90;999.90;;;10.30;91.70;;;;;;5096993;28;20048;-90
2021/04/13 12:08:46;;;;;;;1999.90;999.90;;;10.50;91.50;;;;;;5093619;28;20040;-90
2021/04/13 12:11:16;;;;;;;1999.90;999.90;;;10.60;92.60;;;;;;5081296;28;20043;-90
2021/04/13 12:13:49;;;;;;;1999.90;999.90;;;10.70;90.90;;;;;;5094209;28;20070;-90
2021/04/13 12:16:19;;;;;;;1999.90;999.90;;;10.70;90.80;;;;;;5080686;28;20063;-91
2021/04/13 12:19:10;;;;;;;1999.90;999.90;;;10.60;88.50;;;;;;5094183;28;20048;-90
2021/04/13 12:21:46;;;;;;;1999.90;999.90;;;10.70;91.90;;;;;;5082360;28;20470;-90
2021/04/13 12:24:42;;;;;;;1999.90;999.90;;;10.90;93.00;;;;;;5092943;28;20052;-91
2021/04/13 12:27:46;;;;;;;1999.90;999.90;;;11.20;92.20;;;;;;5094439;28;20056;-90
2021/04/13 12:30:56;;;;;;;1999.90;999.90;;;11.20;81.80;;;;;;5093225;28;20047;-91
2021/04/13 12:33:56;;;;;;;1999.90;999.90;;;11.00;81.90;;;;;;5109150;28;20105;-91
2021/04/13 12:36:58;;;;;;;1999.90;999.90;;;11.00;81.20;;;;;;5092469;28;20055;-91
2021/04/13 12:39:54;;;;;;;1999.90;999.90;;;10.80;82.60;;;;;;5111144;28;20048;-91
2021/04/13 12:42:43;;;;;;;1999.90;999.90;;;10.90;80.00;;;;;;5108598;28;20052;-91
2021/04/13 12:45:49;;;;;;;1999.90;999.90;;;11.20;85.20;;;;;;5097801;28;20419;-90
2021/04/13 12:48:20;;;;;;;1999.90;999.90;;;11.40;72.60;;;;;;5084108;28;20052;-91
2021/04/13 12:51:07;;;;;;;1999.90;999.90;;;11.60;72.30;;;;;;5097883;28;20101;-91
2021/04/13 12:53:35;;;;;;;1999.90;999.90;;;11.50;72.70;;;;;;5090062;28;20054;-90
2021/04/13 12:56:05;;;;;;;1999.90;999.90;;;11.50;73.90;;;;;;5097080;28;20051;-91
2021/04/13 12:58:35;;;;;;;1999.90;999.90;;;11.50;73.30;;;;;;5096865;28;20131;-90
2021/04/13 13:01:06;;;;;;;1999.90;999.90;;;11.50;72.90;;;;;;5097032;28;20504;-90
2021/04/13 13:03:39;;;;;;;1999.90;999.90;;;11.40;73.70;;;;;;5096946;28;20402;-91